sensor_id;sensor_type;location;lat;lon;timestamp;temperature;humidity
22908;DHT22;11620;50.050;8.690;2023-05-17T00:02:11;9.40;99.90
22908;DHT22;11620;50.050;8.690;2023-05-17T00:04:57;9.30;99.90
22908;DHT22;11620;50.050;8.690;2023-05-17T00:07:43;9.40;99.90
22908;DHT22;11620;50.050;8.690;2023-05-17T00:10:32;9.30;99.90
22908;DHT22;11620;50.050;8.690;2023-05-17T00:13:18;9.40;99.90
22908;DHT22;11620;50.050;8.690;2023-05-17T00:16:05;9.40;99.90
22908;DHT22;11620;50.050;8.690;2023-05-17T00:18:51;9.30;99.90
22908;DHT22;11620;50.050;8.690;2023-05-17T00:21:38;9.30;99.90
22908;DHT22;11620;50.050;8.690;2023-05-17T00:24:24;9.20;99.90
22908;DHT22;11620;50.050;8.690;2023-05-17T00:27:11;9.30;99.90
22908;DHT22;11620;50.050;8.690;2023-05-17T00:29:57;9.30;99.90
22908;DHT22;11620;50.050;8.690;2023-05-17T00:32:44;9.30;99.90
22908;DHT22;11620;50.050;8.690;2023-05-17T00:35:31;9.20;99.90
22908;DHT22;11620;50.050;8.690;2023-05-17T00:38:18;9.20;99.90
22908;DHT22;11620;50.050;8.690;2023-05-17T00:41:04;9.20;99.90
22908;DHT22;11620;50.050;8.690;2023-05-17T00:43:50;9.20;99.90
22908;DHT22;11620;50.050;8.690;2023-05-17T00:46:36;9.20;99.90
22908;DHT22;11620;50.050;8.690;2023-05-17T00:49:23;9.10;99.90
22908;DHT22;11620;50.050;8.690;2023-05-17T00:52:09;9.10;99.90
22908;DHT22;11620;50.050;8.690;2023-05-17T00:54:56;9.10;99.90
22908;DHT22;11620;50.050;8.690;2023-05-17T00:57:42;9.10;99.90
22908;DHT22;11620;50.050;8.690;2023-05-17T01:00:28;9.00;99.90
22908;DHT22;11620;50.050;8.690;2023-05-17T01:03:15;9.00;99.90
22908;DHT22;11620;50.050;8.690;2023-05-17T01:06:01;8.90;99.90
22908;DHT22;11620;50.050;8.690;2023-05-17T01:08:47;8.90;99.90
22908;DHT22;11620;50.050;8.690;2023-05-17T01:11:59;8.90;99.90
22908;DHT22;11620;50.050;8.690;2023-05-17T01:21:11;8.90;99.90
22908;DHT22;11620;50.050;8.690;2023-05-17T01:24:25;8.90;99.90
22908;DHT22;11620;50.050;8.690;2023-05-17T01:27:13;8.90;99.90
22908;DHT22;11620;50.050;8.690;2023-05-17T01:30:01;8.90;99.90
22908;DHT22;11620;50.050;8.690;2023-05-17T01:32:47;8.90;99.90
22908;DHT22;11620;50.050;8.690;2023-05-17T01:35:34;8.90;99.90
22908;DHT22;11620;50.050;8.690;2023-05-17T01:38:20;8.80;99.90
22908;DHT22;11620;50.050;8.690;2023-05-17T01:44:20;8.80;99.90
22908;DHT22;11620;50.050;8.690;2023-05-17T01:47:19;8.80;99.90
22908;DHT22;11620;50.050;8.690;2023-05-17T01:50:11;8.80;99.90
22908;DHT22;11620;50.050;8.690;2023-05-17T01:53:04;8.80;99.90
22908;DHT22;11620;50.050;8.690;2023-05-17T01:55:55;8.80;99.90
22908;DHT22;11620;50.050;8.690;2023-05-17T01:58:46;8.80;99.90
22908;DHT22;11620;50.050;8.690;2023-05-17T02:01:34;8.80;99.90
22908;DHT22;11620;50.050;8.690;2023-05-17T02:04:21;8.80;99.90
22908;DHT22;11620;50.050;8.690;2023-05-17T02:07:07;8.80;99.90
22908;DHT22;11620;50.050;8.690;2023-05-17T02:09:53;8.80;99.90
22908;DHT22;11620;50.050;8.690;2023-05-17T02:12:40;8.80;99.90
22908;DHT22;11620;50.050;8.690;2023-05-17T02:15:26;8.80;99.90
22908;DHT22;11620;50.050;8.690;2023-05-17T02:18:12;8.70;99.90
22908;DHT22;11620;50.050;8.690;2023-05-17T02:20:59;8.70;99.90
22908;DHT22;11620;50.050;8.690;2023-05-17T02:23:45;8.70;99.90
22908;DHT22;11620;50.050;8.690;2023-05-17T02:26:32;8.60;99.90
22908;DHT22;11620;50.050;8.690;2023-05-17T02:29:18;8.50;99.90
22908;DHT22;11620;50.050;8.690;2023-05-17T02:32:05;8.50;99.90
22908;DHT22;11620;50.050;8.690;2023-05-17T02:34:51;8.50;99.90
22908;DHT22;11620;50.050;8.690;2023-05-17T02:37:37;8.40;99.90
22908;DHT22;11620;50.050;8.690;2023-05-17T02:40:24;8.40;99.90
22908;DHT22;11620;50.050;8.690;2023-05-17T02:43:10;8.40;99.90
22908;DHT22;11620;50.050;8.690;2023-05-17T02:45:56;8.40;99.90
22908;DHT22;11620;50.050;8.690;2023-05-17T02:48:43;8.30;99.90
22908;DHT22;11620;50.050;8.690;2023-05-17T02:51:29;8.30;99.90
22908;DHT22;11620;50.050;8.690;2023-05-17T02:54:16;8.30;99.90
22908;DHT22;11620;50.050;8.690;2023-05-17T02:57:02;8.30;99.90
22908;DHT22;11620;50.050;8.690;2023-05-17T02:59:49;8.20;99.90
22908;DHT22;11620;50.050;8.690;2023-05-17T03:02:35;8.10;99.90
22908;DHT22;11620;50.050;8.690;2023-05-17T03:05:22;8.10;99.90
22908;DHT22;11620;50.050;8.690;2023-05-17T03:08:08;8.00;99.90
22908;DHT22;11620;50.050;8.690;2023-05-17T03:10:54;8.00;99.90
22908;DHT22;11620;50.050;8.690;2023-05-17T03:13:41;8.00;99.90
22908;DHT22;11620;50.050;8.690;2023-05-17T03:16:27;7.90;99.90
22908;DHT22;11620;50.050;8.690;2023-05-17T03:19:13;7.90;99.90
22908;DHT22;11620;50.050;8.690;2023-05-17T03:22:00;7.80;99.90
22908;DHT22;11620;50.050;8.690;2023-05-17T03:24:46;7.70;99.90
22908;DHT22;11620;50.050;8.690;2023-05-17T03:27:33;7.70;99.90
22908;DHT22;11620;50.050;8.690;2023-05-17T03:30:19;7.60;99.90
22908;DHT22;11620;50.050;8.690;2023-05-17T03:33:05;7.60;99.90
22908;DHT22;11620;50.050;8.690;2023-05-17T03:35:51;7.50;99.90
22908;DHT22;11620;50.050;8.690;2023-05-17T03:38:38;7.50;99.90
22908;DHT22;11620;50.050;8.690;2023-05-17T03:41:24;7.50;99.90
22908;DHT22;11620;50.050;8.690;2023-05-17T03:44:10;7.50;99.90
22908;DHT22;11620;50.050;8.690;2023-05-17T03:46:57;7.50;99.90
22908;DHT22;11620;50.050;8.690;2023-05-17T03:49:43;7.50;99.90
22908;DHT22;11620;50.050;8.690;2023-05-17T03:52:29;7.50;99.90
22908;DHT22;11620;50.050;8.690;2023-05-17T03:55:16;7.50;99.90
22908;DHT22;11620;50.050;8.690;2023-05-17T03:58:02;7.50;99.90
22908;DHT22;11620;50.050;8.690;2023-05-17T04:00:49;7.40;99.90
22908;DHT22;11620;50.050;8.690;2023-05-17T04:03:35;7.30;99.90
22908;DHT22;11620;50.050;8.690;2023-05-17T04:06:23;7.30;99.90
22908;DHT22;11620;50.050;8.690;2023-05-17T04:09:09;7.30;99.90
22908;DHT22;11620;50.050;8.690;2023-05-17T04:11:58;7.30;99.90
22908;DHT22;11620;50.050;8.690;2023-05-17T04:14:44;7.30;99.90
22908;DHT22;11620;50.050;8.690;2023-05-17T04:17:30;7.30;99.90
22908;DHT22;11620;50.050;8.690;2023-05-17T04:20:17;7.40;99.90
22908;DHT22;11620;50.050;8.690;2023-05-17T04:23:03;7.40;99.90
22908;DHT22;11620;50.050;8.690;2023-05-17T04:25:49;7.40;99.90
22908;DHT22;11620;50.050;8.690;2023-05-17T04:28:35;7.40;99.90
22908;DHT22;11620;50.050;8.690;2023-05-17T04:31:22;7.40;99.90
22908;DHT22;11620;50.050;8.690;2023-05-17T04:34:08;7.40;99.90
22908;DHT22;11620;50.050;8.690;2023-05-17T04:36:55;7.40;99.90
22908;DHT22;11620;50.050;8.690;2023-05-17T04:39:41;7.50;99.90
22908;DHT22;11620;50.050;8.690;2023-05-17T04:42:27;7.50;99.90
22908;DHT22;11620;50.050;8.690;2023-05-17T04:45:14;7.50;99.90
22908;DHT22;11620;50.050;8.690;2023-05-17T04:48:01;7.50;99.90
22908;DHT22;11620;50.050;8.690;2023-05-17T04:50:47;7.50;99.90
22908;DHT22;11620;50.050;8.690;2023-05-17T04:53:33;7.50;99.90
22908;DHT22;11620;50.050;8.690;2023-05-17T04:56:20;7.50;99.90
22908;DHT22;11620;50.050;8.690;2023-05-17T04:59:06;7.60;99.90
22908;DHT22;11620;50.050;8.690;2023-05-17T05:01:52;7.60;99.90
22908;DHT22;11620;50.050;8.690;2023-05-17T05:04:39;7.60;99.90
22908;DHT22;11620;50.050;8.690;2023-05-17T05:07:25;7.70;99.90
22908;DHT22;11620;50.050;8.690;2023-05-17T05:10:12;7.70;99.90
22908;DHT22;11620;50.050;8.690;2023-05-17T05:12:58;7.80;99.90
22908;DHT22;11620;50.050;8.690;2023-05-17T05:15:44;7.80;99.90
22908;DHT22;11620;50.050;8.690;2023-05-17T05:18:31;7.90;99.90
22908;DHT22;11620;50.050;8.690;2023-05-17T05:21:17;7.90;99.90
22908;DHT22;11620;50.050;8.690;2023-05-17T05:24:03;7.90;99.90
22908;DHT22;11620;50.050;8.690;2023-05-17T05:26:50;7.90;99.90
22908;DHT22;11620;50.050;8.690;2023-05-17T05:29:36;8.00;99.90
22908;DHT22;11620;50.050;8.690;2023-05-17T05:32:22;8.00;99.90
22908;DHT22;11620;50.050;8.690;2023-05-17T05:35:09;8.10;99.90
22908;DHT22;11620;50.050;8.690;2023-05-17T05:37:56;8.20;99.90
22908;DHT22;11620;50.050;8.690;2023-05-17T05:40:45;8.20;99.90
22908;DHT22;11620;50.050;8.690;2023-05-17T05:43:32;8.30;99.90
22908;DHT22;11620;50.050;8.690;2023-05-17T05:46:21;8.40;99.90
22908;DHT22;11620;50.050;8.690;2023-05-17T05:49:07;8.40;99.90
22908;DHT22;11620;50.050;8.690;2023-05-17T05:51:53;8.50;99.90
22908;DHT22;11620;50.050;8.690;2023-05-17T05:54:40;8.50;99.90
22908;DHT22;11620;50.050;8.690;2023-05-17T05:57:26;8.50;99.90
22908;DHT22;11620;50.050;8.690;2023-05-17T06:00:13;8.50;99.90
22908;DHT22;11620;50.050;8.690;2023-05-17T06:02:59;8.60;99.90
22908;DHT22;11620;50.050;8.690;2023-05-17T06:05:46;8.70;99.90
22908;DHT22;11620;50.050;8.690;2023-05-17T06:08:32;8.80;99.90
22908;DHT22;11620;50.050;8.690;2023-05-17T06:11:19;8.90;99.90
22908;DHT22;11620;50.050;8.690;2023-05-17T06:14:05;9.00;99.90
22908;DHT22;11620;50.050;8.690;2023-05-17T06:16:52;9.20;99.90
22908;DHT22;11620;50.050;8.690;2023-05-17T06:19:38;9.30;99.90
22908;DHT22;11620;50.050;8.690;2023-05-17T06:22:25;9.50;99.90
22908;DHT22;11620;50.050;8.690;2023-05-17T06:25:11;9.50;99.90
22908;DHT22;11620;50.050;8.690;2023-05-17T06:27:58;9.60;99.90
22908;DHT22;11620;50.050;8.690;2023-05-17T06:30:44;9.60;99.90
22908;DHT22;11620;50.050;8.690;2023-05-17T06:33:31;9.60;99.90
22908;DHT22;11620;50.050;8.690;2023-05-17T06:36:17;9.50;99.90
22908;DHT22;11620;50.050;8.690;2023-05-17T06:39:04;9.60;99.90
22908;DHT22;11620;50.050;8.690;2023-05-17T06:41:50;9.60;99.90
22908;DHT22;11620;50.050;8.690;2023-05-17T06:44:36;9.60;99.90
22908;DHT22;11620;50.050;8.690;2023-05-17T06:47:23;9.60;99.90
22908;DHT22;11620;50.050;8.690;2023-05-17T06:50:09;9.60;99.90
22908;DHT22;11620;50.050;8.690;2023-05-17T06:52:56;9.70;99.90
22908;DHT22;11620;50.050;8.690;2023-05-17T06:55:42;9.60;99.90
22908;DHT22;11620;50.050;8.690;2023-05-17T06:58:29;9.60;99.90
22908;DHT22;11620;50.050;8.690;2023-05-17T07:01:15;9.70;99.90
22908;DHT22;11620;50.050;8.690;2023-05-17T07:04:02;9.80;99.90
22908;DHT22;11620;50.050;8.690;2023-05-17T07:06:48;9.90;99.90
22908;DHT22;11620;50.050;8.690;2023-05-17T07:09:34;10.10;99.90
22908;DHT22;11620;50.050;8.690;2023-05-17T07:12:20;10.30;99.90
22908;DHT22;11620;50.050;8.690;2023-05-17T07:15:07;10.50;99.90
22908;DHT22;11620;50.050;8.690;2023-05-17T07:17:53;10.70;99.90
22908;DHT22;11620;50.050;8.690;2023-05-17T07:20:40;10.80;99.90
22908;DHT22;11620;50.050;8.690;2023-05-17T07:23:26;10.90;99.90
22908;DHT22;11620;50.050;8.690;2023-05-17T07:26:12;11.10;99.90
22908;DHT22;11620;50.050;8.690;2023-05-17T07:28:59;11.20;99.90
22908;DHT22;11620;50.050;8.690;2023-05-17T07:31:45;11.40;99.90
22908;DHT22;11620;50.050;8.690;2023-05-17T07:34:31;11.80;99.90
22908;DHT22;11620;50.050;8.690;2023-05-17T07:37:18;11.80;99.90
22908;DHT22;11620;50.050;8.690;2023-05-17T07:40:04;11.90;99.90
22908;DHT22;11620;50.050;8.690;2023-05-17T07:42:51;12.10;99.90
22908;DHT22;11620;50.050;8.690;2023-05-17T07:45:38;12.40;99.90
22908;DHT22;11620;50.050;8.690;2023-05-17T07:48:24;12.60;99.90
22908;DHT22;11620;50.050;8.690;2023-05-17T07:51:11;12.70;99.90
22908;DHT22;11620;50.050;8.690;2023-05-17T07:53:57;13.10;99.90
22908;DHT22;11620;50.050;8.690;2023-05-17T07:56:44;13.50;99.90
22908;DHT22;11620;50.050;8.690;2023-05-17T07:59:30;13.50;99.90
22908;DHT22;11620;50.050;8.690;2023-05-17T08:02:16;13.40;99.90
22908;DHT22;11620;50.050;8.690;2023-05-17T08:05:03;13.10;99.90
22908;DHT22;11620;50.050;8.690;2023-05-17T08:07:49;13.10;99.90
22908;DHT22;11620;50.050;8.690;2023-05-17T08:10:37;12.90;99.90
22908;DHT22;11620;50.050;8.690;2023-05-17T08:13:24;12.60;99.90
22908;DHT22;11620;50.050;8.690;2023-05-17T08:16:10;12.50;99.90
22908;DHT22;11620;50.050;8.690;2023-05-17T08:18:57;12.30;99.90
22908;DHT22;11620;50.050;8.690;2023-05-17T08:21:43;12.10;99.90
22908;DHT22;11620;50.050;8.690;2023-05-17T08:24:31;11.90;99.90
22908;DHT22;11620;50.050;8.690;2023-05-17T08:27:17;11.90;99.90
22908;DHT22;11620;50.050;8.690;2023-05-17T08:30:04;11.90;99.90
22908;DHT22;11620;50.050;8.690;2023-05-17T08:32:50;11.90;99.90
22908;DHT22;11620;50.050;8.690;2023-05-17T08:35:37;11.90;99.90
22908;DHT22;11620;50.050;8.690;2023-05-17T08:38:23;11.90;99.90
22908;DHT22;11620;50.050;8.690;2023-05-17T08:41:10;11.90;99.90
22908;DHT22;11620;50.050;8.690;2023-05-17T08:43:57;11.90;99.90
22908;DHT22;11620;50.050;8.690;2023-05-17T08:46:45;11.90;99.90
22908;DHT22;11620;50.050;8.690;2023-05-17T08:49:38;12.00;99.90
22908;DHT22;11620;50.050;8.690;2023-05-17T08:52:29;12.00;99.90
22908;DHT22;11620;50.050;8.690;2023-05-17T08:55:17;12.10;99.90
22908;DHT22;11620;50.050;8.690;2023-05-17T08:58:04;12.10;99.90
22908;DHT22;11620;50.050;8.690;2023-05-17T09:00:53;12.20;99.90
22908;DHT22;11620;50.050;8.690;2023-05-17T09:03:40;12.40;99.90
22908;DHT22;11620;50.050;8.690;2023-05-17T09:06:29;13.30;99.90
22908;DHT22;11620;50.050;8.690;2023-05-17T09:09:16;13.50;99.90
22908;DHT22;11620;50.050;8.690;2023-05-17T09:12:04;13.70;99.90
22908;DHT22;11620;50.050;8.690;2023-05-17T09:14:50;13.70;99.90
22908;DHT22;11620;50.050;8.690;2023-05-17T09:17:37;13.60;99.90
22908;DHT22;11620;50.050;8.690;2023-05-17T09:20:25;13.40;99.90
22908;DHT22;11620;50.050;8.690;2023-05-17T09:23:20;13.10;99.90
22908;DHT22;11620;50.050;8.690;2023-05-17T09:26:07;13.00;99.90
22908;DHT22;11620;50.050;8.690;2023-05-17T09:28:53;13.00;99.90
22908;DHT22;11620;50.050;8.690;2023-05-17T09:31:40;12.90;99.90
22908;DHT22;11620;50.050;8.690;2023-05-17T09:34:27;12.80;99.90
22908;DHT22;11620;50.050;8.690;2023-05-17T09:37:17;12.80;99.90
22908;DHT22;11620;50.050;8.690;2023-05-17T09:40:05;12.90;99.90
22908;DHT22;11620;50.050;8.690;2023-05-17T09:42:52;13.20;99.90
22908;DHT22;11620;50.050;8.690;2023-05-17T09:45:39;13.40;99.90
22908;DHT22;11620;50.050;8.690;2023-05-17T09:48:26;13.50;99.90
22908;DHT22;11620;50.050;8.690;2023-05-17T09:51:15;13.80;99.90
22908;DHT22;11620;50.050;8.690;2023-05-17T09:54:02;14.00;99.90
22908;DHT22;11620;50.050;8.690;2023-05-17T09:56:54;14.80;99.90
22908;DHT22;11620;50.050;8.690;2023-05-17T09:59:48;15.20;99.90
22908;DHT22;11620;50.050;8.690;2023-05-17T10:02:38;15.10;99.90
22908;DHT22;11620;50.050;8.690;2023-05-17T10:05:26;15.30;99.90
22908;DHT22;11620;50.050;8.690;2023-05-17T10:08:13;15.30;99.90
22908;DHT22;11620;50.050;8.690;2023-05-17T10:11:07;15.30;99.90
22908;DHT22;11620;50.050;8.690;2023-05-17T10:16:54;15.20;99.90
22908;DHT22;11620;50.050;8.690;2023-05-17T10:19:42;15.90;99.90
22908;DHT22;11620;50.050;8.690;2023-05-17T10:22:28;16.00;99.90
22908;DHT22;11620;50.050;8.690;2023-05-17T10:25:15;16.00;99.90
22908;DHT22;11620;50.050;8.690;2023-05-17T10:28:01;15.80;99.90
22908;DHT22;11620;50.050;8.690;2023-05-17T10:30:52;15.60;99.90
22908;DHT22;11620;50.050;8.690;2023-05-17T10:33:39;15.40;99.90
22908;DHT22;11620;50.050;8.690;2023-05-17T10:36:27;15.30;99.90
22908;DHT22;11620;50.050;8.690;2023-05-17T10:39:14;15.30;99.90
22908;DHT22;11620;50.050;8.690;2023-05-17T10:42:04;15.40;99.90
22908;DHT22;11620;50.050;8.690;2023-05-17T10:44:53;15.60;99.90
22908;DHT22;11620;50.050;8.690;2023-05-17T10:47:39;15.70;99.90
22908;DHT22;11620;50.050;8.690;2023-05-17T10:50:30;15.90;99.90
22908;DHT22;11620;50.050;8.690;2023-05-17T10:53:16;16.00;99.90
22908;DHT22;11620;50.050;8.690;2023-05-17T10:56:03;16.20;99.90
22908;DHT22;11620;50.050;8.690;2023-05-17T10:59:15;16.20;99.90
22908;DHT22;11620;50.050;8.690;2023-05-17T11:02:06;16.30;99.90
22908;DHT22;11620;50.050;8.690;2023-05-17T11:04:53;16.20;99.90
22908;DHT22;11620;50.050;8.690;2023-05-17T11:07:41;15.90;99.90
22908;DHT22;11620;50.050;8.690;2023-05-17T11:10:27;15.60;99.90
22908;DHT22;11620;50.050;8.690;2023-05-17T11:13:25;15.50;99.90
22908;DHT22;11620;50.050;8.690;2023-05-17T11:16:15;15.50;99.90
22908;DHT22;11620;50.050;8.690;2023-05-17T11:19:10;15.40;99.90
22908;DHT22;11620;50.050;8.690;2023-05-17T11:21:58;15.30;99.90
22908;DHT22;11620;50.050;8.690;2023-05-17T11:24:58;15.50;99.90
22908;DHT22;11620;50.050;8.690;2023-05-17T11:27:48;15.70;99.90
22908;DHT22;11620;50.050;8.690;2023-05-17T11:30:40;16.20;99.90
22908;DHT22;11620;50.050;8.690;2023-05-17T11:33:44;16.80;99.90
22908;DHT22;11620;50.050;8.690;2023-05-17T11:36:32;16.80;99.90
22908;DHT22;11620;50.050;8.690;2023-05-17T11:39:33;17.00;99.90
22908;DHT22;11620;50.050;8.690;2023-05-17T11:42:25;17.00;99.90
22908;DHT22;11620;50.050;8.690;2023-05-17T11:45:12;16.80;99.90
22908;DHT22;11620;50.050;8.690;2023-05-17T11:47:58;16.70;99.90
22908;DHT22;11620;50.050;8.690;2023-05-17T11:50:46;16.40;99.90
22908;DHT22;11620;50.050;8.690;2023-05-17T11:53:33;16.90;99.90
22908;DHT22;11620;50.050;8.690;2023-05-17T11:56:19;17.20;99.90
22908;DHT22;11620;50.050;8.690;2023-05-17T11:59:07;17.10;99.90
22908;DHT22;11620;50.050;8.690;2023-05-17T12:01:53;17.00;99.90
22908;DHT22;11620;50.050;8.690;2023-05-17T12:04:41;16.80;99.90
22908;DHT22;11620;50.050;8.690;2023-05-17T12:07:27;17.20;99.90
22908;DHT22;11620;50.050;8.690;2023-05-17T12:10:14;17.70;99.90
22908;DHT22;11620;50.050;8.690;2023-05-17T12:13:01;18.10;99.90
22908;DHT22;11620;50.050;8.690;2023-05-17T12:16:03;18.10;99.90
22908;DHT22;11620;50.050;8.690;2023-05-17T12:18:51;17.80;99.90
22908;DHT22;11620;50.050;8.690;2023-05-17T12:21:37;17.50;99.90
22908;DHT22;11620;50.050;8.690;2023-05-17T12:24:36;17.20;99.90
22908;DHT22;11620;50.050;8.690;2023-05-17T12:27:25;17.40;99.90
22908;DHT22;11620;50.050;8.690;2023-05-17T12:30:15;17.60;99.90
22908;DHT22;11620;50.050;8.690;2023-05-17T12:33:02;18.00;99.90
22908;DHT22;11620;50.050;8.690;2023-05-17T12:35:48;18.30;99.90
22908;DHT22;11620;50.050;8.690;2023-05-17T12:38:37;18.20;99.90
22908;DHT22;11620;50.050;8.690;2023-05-17T12:41:24;18.00;99.90
22908;DHT22;11620;50.050;8.690;2023-05-17T12:44:11;17.50;99.90
22908;DHT22;11620;50.050;8.690;2023-05-17T12:47:03;17.40;99.90
22908;DHT22;11620;50.050;8.690;2023-05-17T12:49:53;17.70;99.90
22908;DHT22;11620;50.050;8.690;2023-05-17T12:52:40;18.00;99.90
22908;DHT22;11620;50.050;8.690;2023-05-17T12:55:35;18.50;99.90
22908;DHT22;11620;50.050;8.690;2023-05-17T12:58:21;18.60;99.90
22908;DHT22;11620;50.050;8.690;2023-05-17T13:01:08;18.70;99.90
22908;DHT22;11620;50.050;8.690;2023-05-17T13:03:59;18.90;99.90
22908;DHT22;11620;50.050;8.690;2023-05-17T13:06:54;18.70;99.90
22908;DHT22;11620;50.050;8.690;2023-05-17T13:09:46;18.70;99.90
22908;DHT22;11620;50.050;8.690;2023-05-17T13:12:35;18.90;99.90
22908;DHT22;11620;50.050;8.690;2023-05-17T13:15:31;19.10;99.90
22908;DHT22;11620;50.050;8.690;2023-05-17T13:18:18;19.40;99.90
22908;DHT22;11620;50.050;8.690;2023-05-17T13:21:06;19.30;99.90
22908;DHT22;11620;50.050;8.690;2023-05-17T13:23:52;19.40;99.90
22908;DHT22;11620;50.050;8.690;2023-05-17T13:26:38;19.40;99.90
22908;DHT22;11620;50.050;8.690;2023-05-17T13:29:25;19.60;99.90
22908;DHT22;11620;50.050;8.690;2023-05-17T13:32:12;19.70;99.90
22908;DHT22;11620;50.050;8.690;2023-05-17T13:34:59;19.50;99.90
22908;DHT22;11620;50.050;8.690;2023-05-17T13:37:47;19.40;99.90
22908;DHT22;11620;50.050;8.690;2023-05-17T13:40:34;19.40;99.90
22908;DHT22;11620;50.050;8.690;2023-05-17T13:43:20;19.30;99.90
22908;DHT22;11620;50.050;8.690;2023-05-17T13:46:06;19.00;99.90
22908;DHT22;11620;50.050;8.690;2023-05-17T13:48:53;19.20;99.90
22908;DHT22;11620;50.050;8.690;2023-05-17T13:51:39;19.20;99.90
22908;DHT22;11620;50.050;8.690;2023-05-17T13:54:25;19.10;99.90
22908;DHT22;11620;50.050;8.690;2023-05-17T13:57:12;19.30;99.90
22908;DHT22;11620;50.050;8.690;2023-05-17T13:59:58;19.30;99.90
22908;DHT22;11620;50.050;8.690;2023-05-17T14:02:45;19.40;99.90
22908;DHT22;11620;50.050;8.690;2023-05-17T14:05:31;19.60;99.90
22908;DHT22;11620;50.050;8.690;2023-05-17T14:08:18;19.60;99.90
22908;DHT22;11620;50.050;8.690;2023-05-17T14:11:05;19.50;99.90
22908;DHT22;11620;50.050;8.690;2023-05-17T14:13:51;19.20;99.90
22908;DHT22;11620;50.050;8.690;2023-05-17T14:16:37;19.30;99.90
22908;DHT22;11620;50.050;8.690;2023-05-17T14:19:24;19.30;99.90
22908;DHT22;11620;50.050;8.690;2023-05-17T14:22:10;19.40;99.90
22908;DHT22;11620;50.050;8.690;2023-05-17T14:24:58;19.30;99.90
22908;DHT22;11620;50.050;8.690;2023-05-17T14:27:45;19.20;99.90
22908;DHT22;11620;50.050;8.690;2023-05-17T14:30:32;19.20;99.90
22908;DHT22;11620;50.050;8.690;2023-05-17T14:33:18;19.10;99.90
22908;DHT22;11620;50.050;8.690;2023-05-17T14:36:05;19.10;99.90
22908;DHT22;11620;50.050;8.690;2023-05-17T14:38:51;19.10;99.90
22908;DHT22;11620;50.050;8.690;2023-05-17T14:41:37;19.10;99.90
22908;DHT22;11620;50.050;8.690;2023-05-17T14:44:24;19.00;99.90
22908;DHT22;11620;50.050;8.690;2023-05-17T14:47:12;19.00;99.90
22908;DHT22;11620;50.050;8.690;2023-05-17T14:49:58;18.90;99.90
22908;DHT22;11620;50.050;8.690;2023-05-17T14:52:24;18.90;99.90
22908;DHT22;11620;50.050;8.690;2023-05-17T14:55:09;18.80;99.90
22908;DHT22;11620;50.050;8.690;2023-05-17T14:57:56;18.60;99.90
22908;DHT22;11620;50.050;8.690;2023-05-17T15:00:43;18.70;99.90
22908;DHT22;11620;50.050;8.690;2023-05-17T15:03:32;18.90;99.90
22908;DHT22;11620;50.050;8.690;2023-05-17T15:06:19;19.00;99.90
22908;DHT22;11620;50.050;8.690;2023-05-17T15:09:10;19.10;99.90
22908;DHT22;11620;50.050;8.690;2023-05-17T15:11:58;19.00;99.90
22908;DHT22;11620;50.050;8.690;2023-05-17T15:14:44;18.90;99.90
22908;DHT22;11620;50.050;8.690;2023-05-17T15:17:32;19.00;99.90
22908;DHT22;11620;50.050;8.690;2023-05-17T15:20:19;19.00;99.90
22908;DHT22;11620;50.050;8.690;2023-05-17T15:23:05;18.80;99.90
22908;DHT22;11620;50.050;8.690;2023-05-17T15:25:52;18.60;99.80
22908;DHT22;11620;50.050;8.690;2023-05-17T15:28:38;18.40;99.90
22908;DHT22;11620;50.050;8.690;2023-05-17T15:31:24;18.20;99.40
22908;DHT22;11620;50.050;8.690;2023-05-17T15:34:13;18.10;99.90
22908;DHT22;11620;50.050;8.690;2023-05-17T15:36:59;18.00;99.90
22908;DHT22;11620;50.050;8.690;2023-05-17T15:39:46;18.00;99.90
22908;DHT22;11620;50.050;8.690;2023-05-17T15:42:33;17.90;99.90
22908;DHT22;11620;50.050;8.690;2023-05-17T15:45:19;17.90;99.90
22908;DHT22;11620;50.050;8.690;2023-05-17T15:48:06;17.90;99.90
22908;DHT22;11620;50.050;8.690;2023-05-17T15:50:52;17.80;99.90
22908;DHT22;11620;50.050;8.690;2023-05-17T15:53:39;17.70;99.20
22908;DHT22;11620;50.050;8.690;2023-05-17T15:56:25;17.50;98.90
22908;DHT22;11620;50.050;8.690;2023-05-17T15:59:12;17.40;99.70
22908;DHT22;11620;50.050;8.690;2023-05-17T16:01:59;17.30;99.90
22908;DHT22;11620;50.050;8.690;2023-05-17T16:04:45;17.30;99.90
22908;DHT22;11620;50.050;8.690;2023-05-17T16:07:31;17.10;99.90
22908;DHT22;11620;50.050;8.690;2023-05-17T16:10:18;17.20;99.90
22908;DHT22;11620;50.050;8.690;2023-05-17T16:13:05;17.10;99.90
22908;DHT22;11620;50.050;8.690;2023-05-17T16:15:51;17.00;99.90
22908;DHT22;11620;50.050;8.690;2023-05-17T16:18:37;16.90;99.90
22908;DHT22;11620;50.050;8.690;2023-05-17T16:21:24;16.80;99.90
22908;DHT22;11620;50.050;8.690;2023-05-17T16:24:11;16.70;99.90
22908;DHT22;11620;50.050;8.690;2023-05-17T16:26:57;16.60;99.80
22908;DHT22;11620;50.050;8.690;2023-05-17T16:29:44;16.40;99.90
22908;DHT22;11620;50.050;8.690;2023-05-17T16:32:30;16.40;99.90
22908;DHT22;11620;50.050;8.690;2023-05-17T16:35:17;16.40;99.90
22908;DHT22;11620;50.050;8.690;2023-05-17T16:38:06;16.40;99.90
22908;DHT22;11620;50.050;8.690;2023-05-17T16:40:53;16.30;99.90
22908;DHT22;11620;50.050;8.690;2023-05-17T16:43:39;16.30;99.90
22908;DHT22;11620;50.050;8.690;2023-05-17T16:46:25;16.30;99.90
22908;DHT22;11620;50.050;8.690;2023-05-17T16:49:12;16.20;99.90
22908;DHT22;11620;50.050;8.690;2023-05-17T16:51:58;16.10;99.90
22908;DHT22;11620;50.050;8.690;2023-05-17T16:54:45;16.00;99.90
22908;DHT22;11620;50.050;8.690;2023-05-17T16:57:31;16.10;99.90
22908;DHT22;11620;50.050;8.690;2023-05-17T17:00:18;16.10;99.90
22908;DHT22;11620;50.050;8.690;2023-05-17T17:03:05;16.10;99.90
22908;DHT22;11620;50.050;8.690;2023-05-17T17:05:51;16.10;99.60
22908;DHT22;11620;50.050;8.690;2023-05-17T17:08:37;16.00;99.90
22908;DHT22;11620;50.050;8.690;2023-05-17T17:11:27;15.90;99.30
22908;DHT22;11620;50.050;8.690;2023-05-17T17:14:13;15.90;99.90
22908;DHT22;11620;50.050;8.690;2023-05-17T17:17:00;15.90;99.90
22908;DHT22;11620;50.050;8.690;2023-05-17T17:19:46;15.90;99.90
22908;DHT22;11620;50.050;8.690;2023-05-17T17:22:33;15.80;99.90
22908;DHT22;11620;50.050;8.690;2023-05-17T17:25:19;15.70;99.90
22908;DHT22;11620;50.050;8.690;2023-05-17T17:28:09;15.70;99.90
22908;DHT22;11620;50.050;8.690;2023-05-17T17:30:55;15.70;99.90
22908;DHT22;11620;50.050;8.690;2023-05-17T17:33:43;15.60;99.90
22908;DHT22;11620;50.050;8.690;2023-05-17T17:36:29;15.50;99.90
22908;DHT22;11620;50.050;8.690;2023-05-17T17:39:16;15.40;99.90
22908;DHT22;11620;50.050;8.690;2023-05-17T17:42:02;15.40;99.90
22908;DHT22;11620;50.050;8.690;2023-05-17T17:44:49;15.20;99.90
22908;DHT22;11620;50.050;8.690;2023-05-17T17:47:35;15.10;99.90
22908;DHT22;11620;50.050;8.690;2023-05-17T17:50:21;15.20;99.90
22908;DHT22;11620;50.050;8.690;2023-05-17T17:53:08;15.20;99.90
22908;DHT22;11620;50.050;8.690;2023-05-17T17:55:54;15.10;99.90
22908;DHT22;11620;50.050;8.690;2023-05-17T17:58:40;15.00;99.90